Time;durP1;ratioP1;P1;durP2;ratioP2;P2;SDS_P1;SDS_P2;PMS_P1;PMS_P2;Temp;Humidity;BMP_temperature;BMP_pressure;BME280_temperature;BME280_humidity;BME280_pressure;Samples;Min_cycle;Max_cycle;Signal;HPM_P1;HPM_P2
2021/12/22 00:00:38;;;;;;;29.83;19.45;;;-2.70;99.90;;;;;;4995434;28;20046;-80
2021/12/22 00:03:06;;;;;;;27.10;17.48;;;-2.70;99.90;;;;;;4997079;28;20042;-80
2021/12/22 00:05:37;;;;;;;25.25;16.60;;;-2.70;99.90;;;;;;4991274;28;20054;-80
2021/12/22 00:08:03;;;;;;;27.00;17.13;;;-2.70;99.90;;;;;;4991115;28;20073;-80
2021/12/22 00:10:28;;;;;;;26.02;16.65;;;-2.70;99.90;;;;;;4991314;28;20051;-80
2021/12/22 00:12:54;;;;;;;26.13;17.38;;;-2.70;99.90;;;;;;4992667;28;20053;-80
2021/12/22 00:15:20;;;;;;;30.92;18.08;;;-2.60;99.90;;;;;;4992191;28;20042;-80
2021/12/22 00:17:46;;;;;;;25.40;16.08;;;-2.70;99.90;;;;;;4991380;28;20053;-80
2021/12/22 00:20:14;;;;;;;25.58;17.15;;;-2.70;99.90;;;;;;4990908;28;20053;-81
2021/12/22 00:22:39;;;;;;;26.23;16.52;;;-2.70;99.90;;;;;;4974828;28;20519;-81
2021/12/22 00:25:06;;;;;;;26.42;16.90;;;-2.70;99.90;;;;;;4991161;28;20054;-80
2021/12/22 00:27:31;;;;;;;23.55;16.55;;;-2.80;99.90;;;;;;4974358;28;20054;-81
2021/12/22 00:29:57;;;;;;;29.50;17.58;;;-2.70;99.90;;;;;;4990641;28;20069;-80
2021/12/22 00:32:25;;;;;;;26.85;17.55;;;-2.80;99.90;;;;;;4991550;28;20439;-80
2021/12/22 00:34:53;;;;;;;29.83;18.17;;;-2.80;99.90;;;;;;4991933;28;20053;-80
2021/12/22 00:37:21;;;;;;;32.20;19.00;;;-2.80;99.90;;;;;;4992207;28;20549;-80
2021/12/22 00:39:48;;;;;;;27.52;18.35;;;-2.80;99.90;;;;;;4990570;28;20082;-80
2021/12/22 00:42:14;;;;;;;33.80;19.80;;;-2.80;99.90;;;;;;4991908;28;20465;-80
2021/12/22 00:44:41;;;;;;;31.67;19.88;;;-2.80;99.90;;;;;;4991936;28;20039;-80
2021/12/22 00:47:07;;;;;;;36.40;21.15;;;-2.80;99.90;;;;;;4991300;28;20046;-80
2021/12/22 00:49:33;;;;;;;34.58;19.38;;;-2.80;99.90;;;;;;4990438;28;20100;-80
2021/12/22 00:52:00;;;;;;;31.05;18.95;;;-2.80;99.90;;;;;;4990797;28;20095;-81
2021/12/22 00:54:25;;;;;;;31.00;19.10;;;-2.80;99.90;;;;;;4991816;28;20050;-80
2021/12/22 00:56:51;;;;;;;32.83;19.58;;;-2.80;99.90;;;;;;4991563;28;20041;-80
2021/12/22 00:59:18;;;;;;;32.45;18.90;;;-2.80;99.90;;;;;;4991687;28;20050;-81
2021/12/22 01:01:45;;;;;;;31.23;18.80;;;-2.80;99.90;;;;;;4990459;28;20103;-81
2021/12/22 01:04:11;;;;;;;29.88;18.00;;;-2.80;99.90;;;;;;4990473;28;20038;-80
2021/12/22 01:06:37;;;;;;;30.77;17.52;;;-2.80;99.90;;;;;;4991730;28;20548;-81
2021/12/22 01:09:04;;;;;;;28.77;17.45;;;-2.80;99.90;;;;;;4991837;28;20101;-80
2021/12/22 01:11:30;;;;;;;27.70;16.90;;;-2.90;99.90;;;;;;4990207;28;20473;-81
2021/12/22 01:13:56;;;;;;;31.52;17.73;;;-2.80;99.90;;;;;;4990201;28;20046;-81
2021/12/22 01:16:22;;;;;;;29.10;17.60;;;-2.80;99.90;;;;;;4991940;28;20045;-81
2021/12/22 01:18:48;;;;;;;29.17;16.85;;;-2.90;99.90;;;;;;4989853;28;20129;-81
2021/12/22 01:21:23;;;;;;;27.02;17.20;;;-2.90;99.90;;;;;;4991586;28;20078;-80
2021/12/22 01:24:10;;;;;;;31.08;18.17;;;-2.90;99.90;;;;;;4990460;28;20050;-80
2021/12/22 01:26:41;;;;;;;28.35;16.85;;;-2.90;99.90;;;;;;4990179;28;20126;-81
2021/12/22 01:29:07;;;;;;;31.05;17.92;;;-2.90;99.90;;;;;;4991691;28;20137;-81
2021/12/22 01:31:32;;;;;;;27.27;16.48;;;-3.00;99.90;;;;;;4991403;28;20094;-81
2021/12/22 01:33:58;;;;;;;26.75;16.77;;;-3.00;99.90;;;;;;4991074;28;20058;-80
2021/12/22 01:36:24;;;;;;;24.42;15.90;;;-3.00;99.90;;;;;;4973998;28;20396;-81
2021/12/22 01:38:49;;;;;;;25.45;14.88;;;-3.10;99.90;;;;;;4990013;28;20125;-81
2021/12/22 01:41:15;;;;;;;27.20;16.83;;;-3.10;99.90;;;;;;4993309;28;20054;-80
2021/12/22 01:43:41;;;;;;;21.73;15.07;;;-3.10;99.90;;;;;;4994641;28;20039;-80
2021/12/22 01:49:11;;;;;;;25.48;16.15;;;-3.00;99.90;;;;;;4994818;28;20054;-81
2021/12/22 01:51:45;;;;;;;25.40;15.63;;;-3.10;99.90;;;;;;4994560;28;20046;-81
2021/12/22 01:54:22;;;;;;;24.45;15.82;;;-3.10;99.90;;;;;;4993499;28;20300;-81
2021/12/22 01:56:50;;;;;;;26.80;15.50;;;-3.10;99.90;;;;;;4976875;28;20400;-81
2021/12/22 01:59:16;;;;;;;25.77;15.43;;;-3.10;99.90;;;;;;4994227;28;20042;-80
2021/12/22 02:01:43;;;;;;;24.90;15.60;;;-3.10;99.90;;;;;;4995101;28;20123;-81
2021/12/22 02:04:11;;;;;;;24.48;15.13;;;-3.10;99.90;;;;;;4992821;28;20054;-81
2021/12/22 02:06:47;;;;;;;26.38;15.40;;;-3.00;99.90;;;;;;4994236;28;20050;-80
2021/12/22 02:09:21;;;;;;;25.05;14.60;;;-3.00;99.90;;;;;;4993177;28;20042;-80
2021/12/22 02:11:46;;;;;;;24.80;14.70;;;-3.10;99.90;;;;;;4993974;28;20046;-81
2021/12/22 02:14:12;;;;;;;26.05;14.93;;;-3.10;99.90;;;;;;4994188;28;20536;-81
2021/12/22 02:16:40;;;;;;;22.75;14.00;;;-3.10;99.90;;;;;;4992863;28;20443;-81
2021/12/22 02:19:07;;;;;;;24.95;15.63;;;-3.10;99.90;;;;;;4994061;28;20480;-80
2021/12/22 02:21:40;;;;;;;24.80;15.65;;;-3.10;99.90;;;;;;4993949;28;20477;-81
2021/12/22 02:24:06;;;;;;;25.67;15.70;;;-3.00;99.90;;;;;;4993885;28;20065;-80
2021/12/22 02:26:44;;;;;;;24.92;15.73;;;-3.00;99.90;;;;;;4993645;28;20042;-80
2021/12/22 02:29:22;;;;;;;25.52;15.75;;;-3.10;99.90;;;;;;4992701;28;20046;-81
2021/12/22 02:32:02;;;;;;;23.40;14.75;;;-3.10;99.90;;;;;;4993840;28;20042;-80
2021/12/22 02:34:29;;;;;;;27.75;15.13;;;-3.10;99.90;;;;;;4992251;28;20459;-81
2021/12/22 02:36:59;;;;;;;26.00;15.65;;;-3.10;99.90;;;;;;4992590;28;20077;-80
2021/12/22 02:39:25;;;;;;;25.83;16.05;;;-3.10;99.90;;;;;;4993725;28;20104;-81
2021/12/22 02:41:50;;;;;;;22.60;14.50;;;-3.10;99.90;;;;;;4993795;28;20046;-81
2021/12/22 02:44:16;;;;;;;24.40;14.02;;;-3.10;99.90;;;;;;4992557;28;20086;-81
2021/12/22 02:46:41;;;;;;;24.25;14.80;;;-3.10;99.90;;;;;;4993698;28;20061;-80
2021/12/22 02:49:09;;;;;;;26.05;15.32;;;-3.10;99.90;;;;;;4992474;28;20049;-80
2021/12/22 02:51:36;;;;;;;22.42;14.60;;;-3.10;99.90;;;;;;4993610;28;20504;-81
2021/12/22 02:56:36;;;;;;;23.05;13.80;;;-3.10;99.90;;;;;;4992857;28;20120;-81
2021/12/22 03:04:10;;;;;;;24.17;13.45;;;-3.10;99.90;;;;;;4993623;28;20054;-81
2021/12/22 03:06:48;;;;;;;25.13;15.27;;;-3.20;99.90;;;;;;4976092;28;20057;-80
2021/12/22 03:09:14;;;;;;;25.08;14.93;;;-3.20;99.90;;;;;;4993541;28;20447;-81
2021/12/22 03:11:40;;;;;;;26.02;14.95;;;-3.20;99.90;;;;;;4993629;28;20117;-81
2021/12/22 03:14:05;;;;;;;27.30;14.95;;;-3.10;99.90;;;;;;4993424;28;20459;-80
2021/12/22 03:16:31;;;;;;;26.48;14.07;;;-3.20;99.90;;;;;;4975819;28;20043;-81
2021/12/22 03:18:57;;;;;;;24.10;14.23;;;-3.10;99.90;;;;;;4993276;28;20431;-80
2021/12/22 03:21:23;;;;;;;25.40;14.40;;;-3.10;99.90;;;;;;4992231;28;20047;-80
2021/12/22 03:23:51;;;;;;;25.38;14.60;;;-3.10;99.90;;;;;;4993231;28;20480;-80
2021/12/22 03:26:18;;;;;;;27.30;14.80;;;-3.10;99.90;;;;;;4992315;28;20526;-80
2021/12/22 03:28:47;;;;;;;26.85;14.45;;;-3.10;99.90;;;;;;4993978;28;20109;-81
2021/12/22 03:31:14;;;;;;;31.75;14.48;;;-3.10;99.90;;;;;;4992106;28;20046;-80
2021/12/22 03:33:39;;;;;;;24.50;13.43;;;-3.10;99.90;;;;;;4993005;28;20080;-81
2021/12/22 03:36:05;;;;;;;24.45;14.25;;;-3.20;99.90;;;;;;4993125;28;20054;-80
2021/12/22 03:38:32;;;;;;;22.17;13.43;;;-3.20;99.90;;;;;;4991772;28;20054;-81
2021/12/22 03:40:59;;;;;;;25.63;13.85;;;-3.30;99.90;;;;;;4992940;28;20476;-80
2021/12/22 03:43:25;;;;;;;23.02;13.02;;;-3.30;99.90;;;;;;4992855;28;20549;-81
2021/12/22 03:45:50;;;;;;;24.05;13.63;;;-3.40;99.90;;;;;;4993341;28;20042;-80
2021/12/22 03:48:18;;;;;;;26.05;13.80;;;-3.40;99.90;;;;;;4991455;28;20121;-80
2021/12/22 03:50:43;;;;;;;23.85;14.38;;;-3.40;99.90;;;;;;4991434;28;20472;-80
2021/12/22 03:53:10;;;;;;;23.45;14.27;;;-3.40;99.90;;;;;;4991659;28;20099;-80
2021/12/22 03:55:36;;;;;;;29.35;14.27;;;-3.50;99.90;;;;;;4991973;28;20132;-80
2021/12/22 03:58:01;;;;;;;26.05;14.88;;;-3.50;99.90;;;;;;4992904;28;20046;-80
2021/12/22 04:00:27;;;;;;;27.27;14.80;;;-3.50;99.90;;;;;;4991883;28;20046;-81
2021/12/22 04:02:53;;;;;;;32.03;15.05;;;-3.50;99.90;;;;;;4974597;28;20096;-80
2021/12/22 04:05:19;;;;;;;29.23;15.02;;;-3.40;99.90;;;;;;4993930;28;20453;-80
2021/12/22 04:07:45;;;;;;;26.23;14.35;;;-3.50;99.90;;;;;;4995913;28;20136;-80
2021/12/22 04:10:22;;;;;;;31.77;14.85;;;-3.50;99.90;;;;;;4995499;28;20122;-80
2021/12/22 04:12:50;;;;;;;28.40;14.80;;;-3.50;99.90;;;;;;4995244;28;20050;-80
2021/12/22 04:15:17;;;;;;;30.02;14.63;;;-3.60;99.90;;;;;;4996537;28;20074;-80
2021/12/22 04:17:43;;;;;;;26.88;14.25;;;-3.60;99.90;;;;;;4994777;28;20042;-80
2021/12/22 04:20:10;;;;;;;29.52;15.68;;;-3.60;99.90;;;;;;4995146;28;20420;-80
2021/12/22 04:22:36;;;;;;;31.27;15.30;;;-3.50;99.90;;;;;;4995775;28;20053;-80
2021/12/22 04:25:02;;;;;;;28.67;15.40;;;-3.50;99.90;;;;;;4994365;28;20050;-80
2021/12/22 04:27:27;;;;;;;27.73;14.43;;;-3.40;99.90;;;;;;4994887;28;20054;-80
2021/12/22 04:29:53;;;;;;;29.25;15.15;;;-3.40;99.90;;;;;;4996492;28;20102;-80
2021/12/22 04:32:19;;;;;;;28.75;15.10;;;-3.40;99.90;;;;;;4996487;28;20046;-80
2021/12/22 04:34:44;;;;;;;30.63;14.95;;;-3.40;99.90;;;;;;4994420;28;20057;-80
2021/12/22 04:37:10;;;;;;;30.80;15.23;;;-3.40;99.90;;;;;;4993044;28;20396;-80
2021/12/22 04:39:35;;;;;;;29.20;15.05;;;-3.40;99.90;;;;;;4992897;28;20050;-80
2021/12/22 04:42:01;;;;;;;30.77;15.52;;;-3.40;99.90;;;;;;4991635;28;20046;-80
2021/12/22 04:44:27;;;;;;;29.20;15.27;;;-3.40;99.90;;;;;;4992525;28;20369;-81
2021/12/22 04:46:52;;;;;;;33.05;14.95;;;-3.40;99.90;;;;;;4990830;28;20053;-80
2021/12/22 04:49:18;;;;;;;31.92;14.90;;;-3.40;99.90;;;;;;4992023;28;20122;-80
2021/12/22 04:51:52;;;;;;;30.08;14.73;;;-3.40;99.90;;;;;;4991955;28;20556;-80
2021/12/22 04:54:31;;;;;;;29.00;14.57;;;-3.40;99.90;;;;;;4990628;28;20053;-80
2021/12/22 04:56:57;;;;;;;31.23;14.57;;;-3.40;99.90;;;;;;4992131;28;20185;-80
2021/12/22 04:59:24;;;;;;;30.38;15.18;;;-3.40;99.90;;;;;;4992171;28;20042;-81
2021/12/22 05:01:51;;;;;;;29.48;15.73;;;-3.40;99.90;;;;;;4990568;28;20048;-80
2021/12/22 05:04:17;;;;;;;30.35;15.20;;;-3.40;99.90;;;;;;4991812;28;20066;-80
2021/12/22 05:06:43;;;;;;;30.70;16.00;;;-3.50;99.90;;;;;;4990587;28;20093;-81
2021/12/22 05:09:08;;;;;;;32.45;15.80;;;-3.40;99.90;;;;;;4990427;28;20461;-80
2021/12/22 05:11:35;;;;;;;31.00;14.70;;;-3.40;99.90;;;;;;4991832;28;20074;-80
2021/12/22 05:14:03;;;;;;;31.23;16.30;;;-3.40;99.90;;;;;;4992277;28;20054;-80
2021/12/22 05:16:30;;;;;;;31.23;15.90;;;-3.40;99.90;;;;;;4995130;28;20116;-80
2021/12/22 05:18:59;;;;;;;32.45;15.73;;;-3.40;99.90;;;;;;4993869;28;20400;-80
2021/12/22 05:21:26;;;;;;;29.98;15.88;;;-3.40;99.90;;;;;;4994054;28;20046;-80
2021/12/22 05:23:56;;;;;;;29.65;15.20;;;-3.50;99.90;;;;;;4995063;28;20061;-80
2021/12/22 05:26:23;;;;;;;29.67;14.77;;;-3.40;99.90;;;;;;4995161;28;20084;-80
2021/12/22 05:28:49;;;;;;;31.77;15.02;;;-3.50;99.90;;;;;;4995028;28;20078;-80
2021/12/22 05:31:14;;;;;;;29.95;15.13;;;-3.50;99.90;;;;;;4993910;28;20399;-80
2021/12/22 05:33:40;;;;;;;28.48;14.63;;;-3.50;99.90;;;;;;4978072;28;20057;-80
2021/12/22 05:36:06;;;;;;;27.52;15.50;;;-3.50;99.90;;;;;;4994466;28;20047;-80
2021/12/22 05:38:32;;;;;;;28.10;14.70;;;-3.60;99.90;;;;;;4995910;28;20492;-80
2021/12/22 05:40:58;;;;;;;32.75;15.48;;;-3.60;99.90;;;;;;4994887;28;20038;-80
2021/12/22 05:43:23;;;;;;;34.20;15.68;;;-3.60;99.90;;;;;;4994891;28;20053;-80
2021/12/22 05:45:49;;;;;;;29.98;15.48;;;-3.60;99.90;;;;;;4993297;28;20046;-80
2021/12/22 05:48:15;;;;;;;28.38;14.60;;;-3.60;99.90;;;;;;4993506;28;20046;-80
2021/12/22 05:50:45;;;;;;;24.63;13.77;;;-3.60;99.90;;;;;;4993622;28;20076;-80
2021/12/22 05:53:11;;;;;;;29.15;15.18;;;-3.70;99.90;;;;;;4993398;28;20404;-80
2021/12/22 05:55:36;;;;;;;30.48;14.90;;;-3.70;99.90;;;;;;4995491;28;20039;-80
2021/12/22 05:58:02;;;;;;;36.10;15.38;;;-3.70;99.90;;;;;;4993809;28;20046;-80
2021/12/22 06:00:28;;;;;;;31.27;16.33;;;-3.60;99.90;;;;;;4977859;28;20042;-80
2021/12/22 06:02:53;;;;;;;30.88;14.93;;;-3.70;99.90;;;;;;4995636;28;20065;-80
2021/12/22 06:05:19;;;;;;;30.00;15.80;;;-3.60;99.90;;;;;;4998354;28;20042;-80
2021/12/22 06:07:46;;;;;;;30.83;14.98;;;-3.60;99.90;;;;;;4998451;28;20142;-80
2021/12/22 06:10:12;;;;;;;32.70;15.38;;;-3.60;99.90;;;;;;4996292;28;20047;-80
2021/12/22 06:12:37;;;;;;;32.10;15.02;;;-3.60;99.90;;;;;;4998236;28;20049;-80
2021/12/22 06:15:03;;;;;;;29.70;14.25;;;-3.60;99.90;;;;;;4998093;28;20078;-80
2021/12/22 06:17:29;;;;;;;28.52;14.63;;;-3.60;99.90;;;;;;4997625;28;20042;-80
2021/12/22 06:19:55;;;;;;;34.60;15.52;;;-3.60;99.90;;;;;;4997783;28;20176;-80
2021/12/22 06:22:21;;;;;;;31.95;14.45;;;-3.60;99.90;;;;;;4996245;28;20051;-80
2021/12/22 06:24:46;;;;;;;29.55;14.48;;;-3.50;99.90;;;;;;4998123;28;20054;-80
2021/12/22 06:27:12;;;;;;;30.17;15.25;;;-3.50;99.90;;;;;;4998694;28;20136;-80
2021/12/22 06:29:38;;;;;;;30.40;15.15;;;-3.50;99.90;;;;;;4996815;28;20046;-80
2021/12/22 06:32:04;;;;;;;33.65;15.32;;;-3.60;99.90;;;;;;4998352;28;20095;-80
2021/12/22 06:34:30;;;;;;;34.40;14.50;;;-3.50;99.90;;;;;;4996099;28;20058;-80
2021/12/22 06:36:55;;;;;;;32.03;14.43;;;-3.60;99.90;;;;;;4997521;28;20047;-80
2021/12/22 06:39:21;;;;;;;34.08;15.85;;;-3.60;99.90;;;;;;4997688;28;20462;-80
2021/12/22 06:41:47;;;;;;;28.45;13.75;;;-3.60;99.90;;;;;;4995885;28;20038;-80
2021/12/22 06:44:14;;;;;;;30.27;14.18;;;-3.70;99.90;;;;;;4997569;28;20050;-80
2021/12/22 06:46:41;;;;;;;30.73;13.63;;;-3.70;99.90;;;;;;4997433;28;20045;-80
2021/12/22 06:49:10;;;;;;;32.70;15.40;;;-3.70;99.90;;;;;;4996097;28;20130;-80
2021/12/22 06:51:37;;;;;;;30.85;14.88;;;-3.70;99.90;;;;;;4992835;28;20054;-80
2021/12/22 06:54:03;;;;;;;33.85;15.05;;;-3.70;99.90;;;;;;4994950;28;20049;-80
2021/12/22 06:56:28;;;;;;;30.83;15.45;;;-3.70;99.90;;;;;;4994734;28;20039;-80
2021/12/22 06:58:56;;;;;;;37.90;16.38;;;-3.70;99.90;;;;;;4994147;28;20054;-80
2021/12/22 07:01:23;;;;;;;31.10;15.18;;;-3.70;99.90;;;;;;4993017;28;20042;-80
2021/12/22 07:03:48;;;;;;;32.20;15.73;;;-3.70;99.90;;;;;;4993444;28;20092;-80
2021/12/22 07:06:14;;;;;;;30.58;14.27;;;-3.70;99.90;;;;;;4993396;28;20046;-81
2021/12/22 07:08:40;;;;;;;33.75;14.95;;;-3.70;99.90;;;;;;4992429;28;20050;-81
2021/12/22 07:11:06;;;;;;;35.60;15.38;;;-3.70;99.90;;;;;;4993822;28;20042;-81
2021/12/22 07:13:32;;;;;;;32.17;15.15;;;-3.70;99.90;;;;;;4993871;28;20506;-81
2021/12/22 07:15:58;;;;;;;31.48;14.32;;;-3.70;99.90;;;;;;4993269;28;20512;-80
2021/12/22 07:18:23;;;;;;;29.13;13.93;;;-3.70;99.90;;;;;;4992729;28;20107;-81
2021/12/22 07:20:49;;;;;;;32.80;14.73;;;-3.70;99.90;;;;;;4992344;28;20393;-81
2021/12/22 07:23:15;;;;;;;28.60;14.50;;;-3.70;99.90;;;;;;4993873;28;20046;-80
2021/12/22 07:25:40;;;;;;;32.10;15.00;;;-3.70;99.90;;;;;;4992507;28;20038;-81
2021/12/22 07:28:08;;;;;;;33.72;14.75;;;-3.70;99.90;;;;;;4993976;28;20050;-80
2021/12/22 07:30:34;;;;;;;31.83;15.00;;;-3.70;99.90;;;;;;4992912;28;20095;-81
2021/12/22 07:33:00;;;;;;;32.40;15.15;;;-3.70;99.90;;;;;;4994641;28;20459;-80
2021/12/22 07:35:31;;;;;;;30.90;13.63;;;-3.80;99.90;;;;;;4992461;28;20062;-81
2021/12/22 07:38:15;;;;;;;29.45;14.32;;;-3.70;99.90;;;;;;4992657;28;20047;-81
2021/12/22 07:40:41;;;;;;;33.55;13.85;;;-3.70;99.90;;;;;;4993526;28;20133;-81
2021/12/22 07:43:06;;;;;;;30.45;13.30;;;-3.70;99.90;;;;;;4993183;28;20105;-80
2021/12/22 07:45:32;;;;;;;29.08;13.88;;;-3.70;99.90;;;;;;4992632;28;20046;-81
2021/12/22 07:47:58;;;;;;;34.78;14.35;;;-3.60;99.90;;;;;;4993726;28;20052;-81
2021/12/22 07:50:23;;;;;;;29.08;13.63;;;-3.70;99.90;;;;;;4994684;28;20422;-80
2021/12/22 07:52:49;;;;;;;29.63;12.90;;;-3.70;99.90;;;;;;4993947;28;20038;-81
2021/12/22 07:55:15;;;;;;;32.92;13.95;;;-3.70;99.90;;;;;;4994771;28;20130;-80
2021/12/22 07:57:40;;;;;;;27.48;13.95;;;-3.70;99.90;;;;;;4993665;28;20129;-81
2021/12/22 08:00:07;;;;;;;30.30;13.07;;;-3.70;99.90;;;;;;4995415;28;20469;-81
2021/12/22 08:02:33;;;;;;;33.58;13.80;;;-3.70;99.90;;;;;;4994865;28;20509;-81
2021/12/22 08:04:58;;;;;;;32.17;15.00;;;-3.70;99.90;;;;;;4993199;28;20107;-80
2021/12/22 08:07:24;;;;;;;32.13;13.25;;;-3.70;99.90;;;;;;4994451;28;20086;-81
2021/12/22 08:09:49;;;;;;;30.52;13.98;;;-3.70;99.90;;;;;;4978360;28;20384;-80
2021/12/22 08:12:15;;;;;;;30.58;13.93;;;-3.70;99.90;;;;;;4993274;28;20452;-81
2021/12/22 08:14:41;;;;;;;28.00;13.48;;;-3.70;99.90;;;;;;4994757;28;20042;-81
2021/12/22 08:17:08;;;;;;;31.48;13.02;;;-3.60;99.90;;;;;;4992618;28;20070;-81
2021/12/22 08:19:34;;;;;;;36.22;13.40;;;-3.70;99.90;;;;;;4993969;28;20061;-80
2021/12/22 08:22:00;;;;;;;30.00;13.82;;;-3.60;99.90;;;;;;4994476;28;20038;-81
2021/12/22 08:24:26;;;;;;;31.45;13.90;;;-3.60;99.90;;;;;;4993773;28;20054;-81
2021/12/22 08:26:52;;;;;;;29.25;13.55;;;-3.60;99.90;;;;;;4993165;28;20498;-81
2021/12/22 08:29:18;;;;;;;33.65;14.93;;;-3.60;99.90;;;;;;4994435;28;20087;-80
2021/12/22 08:31:44;;;;;;;30.58;13.32;;;-3.60;99.90;;;;;;4991531;28;20103;-81
2021/12/22 08:34:13;;;;;;;30.58;13.20;;;-3.50;99.90;;;;;;4992835;28;20058;-80
2021/12/22 08:39:23;;;;;;;35.08;13.80;;;-3.50;99.90;;;;;;4987821;28;20378;-81
2021/12/22 08:41:49;;;;;;;31.00;15.05;;;-3.40;99.90;;;;;;4972268;28;20065;-82
2021/12/22 08:44:18;;;;;;;33.53;14.93;;;-3.40;99.90;;;;;;4989867;28;20389;-82
2021/12/22 08:46:48;;;;;;;33.33;14.52;;;-3.40;99.90;;;;;;4996083;28;20082;-81
2021/12/22 08:49:14;;;;;;;33.20;15.43;;;-3.40;99.90;;;;;;4978958;28;20130;-80
2021/12/22 08:51:40;;;;;;;31.80;14.65;;;-3.40;99.90;;;;;;4978909;28;20051;-80
2021/12/22 08:54:06;;;;;;;32.40;14.75;;;-3.30;99.90;;;;;;4975379;28;20086;-81
2021/12/22 08:56:33;;;;;;;30.80;14.02;;;-3.30;99.90;;;;;;4977931;28;20043;-81
2021/12/22 08:58:59;;;;;;;29.85;13.68;;;-3.30;99.90;;;;;;4976055;28;20052;-81
2021/12/22 09:01:26;;;;;;;34.25;15.13;;;-3.30;99.90;;;;;;5009987;28;20412;-81
2021/12/22 09:03:52;;;;;;;31.73;13.77;;;-3.20;99.90;;;;;;4994521;28;20038;-81
2021/12/22 09:06:18;;;;;;;35.50;14.23;;;-3.20;99.90;;;;;;4996851;28;20050;-81
2021/12/22 09:08:44;;;;;;;35.97;13.90;;;-3.20;99.90;;;;;;4994851;28;20047;-81
2021/12/22 09:11:11;;;;;;;32.70;14.23;;;-3.20;99.90;;;;;;4994645;28;20388;-81
2021/12/22 09:13:39;;;;;;;32.03;14.60;;;-3.10;99.90;;;;;;4995783;28;20129;-81
2021/12/22 09:16:06;;;;;;;32.08;14.05;;;-3.00;99.90;;;;;;4995832;28;20133;-81
2021/12/22 09:18:34;;;;;;;33.55;14.73;;;-3.00;99.90;;;;;;4995327;28;20489;-81
2021/12/22 09:21:00;;;;;;;30.63;14.27;;;-2.90;99.90;;;;;;4997111;28;20062;-81
2021/12/22 09:23:26;;;;;;;31.88;14.00;;;-2.90;99.90;;;;;;4996220;28;20062;-81
2021/12/22 09:25:52;;;;;;;31.85;13.75;;;-2.80;99.90;;;;;;4995947;28;20480;-81
2021/12/22 09:28:18;;;;;;;32.47;14.93;;;-2.80;99.90;;;;;;4995690;28;20083;-81
2021/12/22 09:30:44;;;;;;;30.02;15.10;;;-2.70;99.90;;;;;;4994807;28;20389;-81
2021/12/22 09:33:14;;;;;;;30.77;13.45;;;-2.70;99.90;;;;;;4995738;28;20059;-81
2021/12/22 09:35:42;;;;;;;30.88;14.27;;;-2.60;99.90;;;;;;4997517;28;20503;-81
2021/12/22 09:38:08;;;;;;;33.85;15.00;;;-2.60;99.90;;;;;;4995483;28;20042;-80
2021/12/22 09:40:34;;;;;;;31.52;13.93;;;-2.50;99.90;;;;;;4996724;28;20076;-81
2021/12/22 09:43:00;;;;;;;30.25;13.73;;;-2.50;99.90;;;;;;4995334;28;20150;-81
2021/12/22 09:45:26;;;;;;;29.08;14.35;;;-2.50;99.90;;;;;;4979040;28;20488;-81
2021/12/22 09:53:17;;;;;;;28.73;14.23;;;-2.40;99.90;;;;;;4998092;28;20055;-81
2021/12/22 09:55:43;;;;;;;32.55;14.55;;;-2.30;99.90;;;;;;4997320;28;20042;-81
2021/12/22 09:58:11;;;;;;;31.58;14.27;;;-2.20;99.90;;;;;;4995493;28;20050;-81
2021/12/22 10:00:38;;;;;;;30.80;14.23;;;-2.10;99.90;;;;;;4994934;28;20045;-81
2021/12/22 10:03:05;;;;;;;31.85;14.23;;;-2.10;99.90;;;;;;4996920;28;20116;-81
2021/12/22 10:05:31;;;;;;;33.13;14.80;;;-2.00;99.90;;;;;;4997399;28;20125;-81
2021/12/22 10:08:08;;;;;;;35.42;15.25;;;-2.00;99.90;;;;;;4996023;28;20085;-81
2021/12/22 10:10:37;;;;;;;31.88;15.07;;;-1.90;99.90;;;;;;4995485;28;20066;-81
2021/12/22 10:13:17;;;;;;;34.13;15.35;;;-1.90;99.90;;;;;;4997673;28;20444;-82
2021/12/22 10:15:44;;;;;;;33.85;15.00;;;-1.80;99.90;;;;;;4995854;28;20090;-81
2021/12/22 10:18:11;;;;;;;32.53;14.98;;;-1.80;99.90;;;;;;4994973;28;20037;-81
2021/12/22 10:20:37;;;;;;;28.77;14.25;;;-1.80;99.90;;;;;;4996041;28;20074;-81
2021/12/22 10:23:25;;;;;;;30.75;15.18;;;-1.80;99.90;;;;;;4996259;28;20046;-80
2021/12/22 10:26:03;;;;;;;32.95;13.95;;;-1.80;99.90;;;;;;4997407;28;20108;-81
2021/12/22 10:28:31;;;;;;;31.23;14.00;;;-1.70;99.90;;;;;;4997764;28;20042;-81
2021/12/22 10:31:01;;;;;;;30.75;13.88;;;-1.80;99.90;;;;;;4999525;28;20126;-81
2021/12/22 10:33:31;;;;;;;29.30;14.02;;;-1.80;99.90;;;;;;5002926;28;20412;-81
2021/12/22 10:36:00;;;;;;;28.40;14.32;;;-1.70;99.90;;;;;;4997709;28;20050;-80
2021/12/22 10:38:29;;;;;;;30.35;13.40;;;-1.60;99.90;;;;;;4997971;28;20487;-81
2021/12/22 10:41:03;;;;;;;27.60;13.40;;;-1.60;99.90;;;;;;4995783;28;20042;-81
2021/12/22 10:43:31;;;;;;;30.75;14.05;;;-1.60;99.90;;;;;;4996359;28;20411;-81
2021/12/22 10:46:00;;;;;;;30.00;13.00;;;-1.60;99.90;;;;;;4997244;28;20082;-81
2021/12/22 10:51:24;;;;;;;30.00;13.85;;;-1.60;99.90;;;;;;4998178;28;20046;-81
2021/12/22 10:53:51;;;;;;;29.75;14.40;;;-1.60;99.90;;;;;;4998598;28;20050;-81
2021/12/22 10:56:21;;;;;;;32.67;14.90;;;-1.60;99.90;;;;;;4998517;28;20053;-81
2021/12/22 10:58:47;;;;;;;29.58;14.13;;;-1.60;99.90;;;;;;4997455;28;20057;-81
2021/12/22 11:01:17;;;;;;;32.83;15.05;;;-1.50;99.90;;;;;;4997095;28;20062;-81
2021/12/22 11:03:52;;;;;;;32.92;16.02;;;-1.50;99.90;;;;;;4998666;28;20049;-81
2021/12/22 11:06:29;;;;;;;37.78;18.92;;;-1.40;99.90;;;;;;4999016;28;20076;-80
2021/12/22 11:09:03;;;;;;;45.78;19.73;;;-1.40;99.90;;;;;;4997452;28;20049;-81
2021/12/22 11:11:36;;;;;;;47.67;23.75;;;-1.50;99.90;;;;;;4995505;28;20042;-81
2021/12/22 11:14:19;;;;;;;53.30;24.20;;;-1.40;99.90;;;;;;4998706;28;20048;-81
2021/12/22 11:16:55;;;;;;;39.10;19.17;;;-1.40;99.90;;;;;;4997879;28;20122;-81
2021/12/22 11:19:21;;;;;;;41.67;17.67;;;-1.30;99.90;;;;;;4996483;28;20073;-81
2021/12/22 11:22:03;;;;;;;32.65;16.23;;;-1.30;99.90;;;;;;4998061;28;20045;-81
2021/12/22 11:24:31;;;;;;;32.30;15.25;;;-1.30;99.90;;;;;;4995806;28;20050;-81
2021/12/22 11:26:57;;;;;;;32.65;14.68;;;-1.30;99.90;;;;;;4997856;28;20057;-81
2021/12/22 11:29:24;;;;;;;33.75;14.45;;;-1.30;99.90;;;;;;4996424;28;20074;-81
2021/12/22 11:31:52;;;;;;;30.75;14.05;;;-1.20;99.90;;;;;;4979386;28;20042;-81
2021/12/22 11:34:21;;;;;;;31.30;14.05;;;-1.20;99.90;;;;;;4997553;28;20055;-81
2021/12/22 11:36:49;;;;;;;29.35;14.07;;;-1.10;99.90;;;;;;4997686;28;20395;-81
2021/12/22 11:39:15;;;;;;;29.27;14.30;;;-1.10;99.90;;;;;;4997633;28;20111;-81
2021/12/22 11:41:54;;;;;;;27.83;14.15;;;-1.10;99.90;;;;;;4997464;28;20034;-81
2021/12/22 11:44:25;;;;;;;25.75;13.63;;;-1.10;99.90;;;;;;4995986;28;20050;-81
2021/12/22 11:46:57;;;;;;;26.65;13.52;;;-1.00;99.90;;;;;;4997630;28;20046;-81
2021/12/22 11:49:24;;;;;;;29.35;13.98;;;-1.00;99.90;;;;;;4997444;28;20045;-81
2021/12/22 11:51:50;;;;;;;29.63;13.23;;;-0.90;99.90;;;;;;4996270;28;20085;-81
2021/12/22 11:54:16;;;;;;;29.33;13.55;;;-0.90;99.90;;;;;;4980015;28;20053;-81
2021/12/22 11:56:48;;;;;;;23.35;12.23;;;-0.80;99.90;;;;;;4997380;28;20050;-81
2021/12/22 11:59:28;;;;;;;29.15;13.20;;;-0.80;99.90;;;;;;4997649;28;20057;-81
2021/12/22 12:02:21;;;;;;;29.75;13.45;;;-0.80;99.90;;;;;;4996564;28;20412;-81
2021/12/22 12:04:51;;;;;;;24.77;12.27;;;-0.80;99.90;;;;;;4996110;28;20038;-81
2021/12/22 12:07:41;;;;;;;26.75;13.10;;;-0.80;99.90;;;;;;4996515;28;20054;-81
2021/12/22 12:10:35;;;;;;;27.58;13.93;;;-0.80;99.90;;;;;;4980118;28;20074;-81
2021/12/22 12:13:11;;;;;;;33.53;13.73;;;-0.80;99.90;;;;;;4997678;28;20046;-81
2021/12/22 12:21:39;;;;;;;25.90;12.98;;;-0.80;99.90;;;;;;4997570;28;20437;-81
2021/12/22 12:22:11;;;;;;;30.77;13.15;;;-0.80;99.90;;;;;;4997276;28;20051;-81
2021/12/22 12:24:56;;;;;;;30.40;14.80;;;-0.70;99.90;;;;;;4994687;28;20042;-81
2021/12/22 12:27:36;;;;;;;30.30;13.02;;;-0.70;99.90;;;;;;4995338;28;20042;-81
2021/12/22 12:30:10;;;;;;;28.60;13.50;;;-0.70;99.90;;;;;;4996586;28;20050;-81
2021/12/22 12:32:39;;;;;;;32.43;13.17;;;-0.70;99.90;;;;;;4996554;28;20500;-81
2021/12/22 12:35:18;;;;;;;26.20;13.23;;;-0.70;99.90;;;;;;4996540;28;20092;-81
2021/12/22 12:38:01;;;;;;;29.30;13.40;;;-0.70;99.90;;;;;;4994734;28;20073;-81
2021/12/22 12:40:54;;;;;;;29.83;13.90;;;-0.60;99.90;;;;;;5003857;28;20094;-81
2021/12/22 12:43:40;;;;;;;27.88;13.55;;;-0.60;99.90;;;;;;4999787;28;20046;-81
2021/12/22 12:46:27;;;;;;;;;;;-0.60;99.90;;;;;;5000687;28;20046;-81
2021/12/22 12:49:05;;;;;;;29.55;13.60;;;-0.60;99.90;;;;;;4995951;28;19928;-80
2021/12/22 12:51:45;;;;;;;29.83;12.90;;;-0.60;99.90;;;;;;4997267;28;20065;-80
2021/12/22 12:54:17;;;;;;;27.20;12.77;;;-0.50;99.90;;;;;;4997982;28;20061;-84
2021/12/22 12:57:22;;;;;;;29.40;12.75;;;-0.50;99.90;;;;;;4996734;28;20046;-81
2021/12/22 12:59:54;;;;;;;28.10;13.02;;;-0.50;99.90;;;;;;4979617;28;20053;-81